createdAt,value
2019-01-10T00:02:25.487Z,1.10
2019-01-10T00:09:53.936Z,1.00
2019-01-10T00:12:22.642Z,1.10
2019-01-10T00:14:51.443Z,1.10
2019-01-10T00:17:20.312Z,1.20
2019-01-10T00:19:49.139Z,1.10
2019-01-10T00:22:17.896Z,1.20
2019-01-10T00:24:46.684Z,1.00
2019-01-10T00:29:43.944Z,1.10
2019-01-10T00:32:12.814Z,1.10
2019-01-10T00:34:41.592Z,1.10
2019-01-10T00:37:10.455Z,1.10
2019-01-10T00:39:39.496Z,1.10
2019-01-10T00:42:08.299Z,1.00
2019-01-10T00:44:36.983Z,1.00
2019-01-10T00:47:05.971Z,1.00
2019-01-10T00:52:03.312Z,0.90
2019-01-10T00:54:32.383Z,0.90
2019-01-10T00:57:01.239Z,0.90
2019-01-10T00:59:30.108Z,1.00
2019-01-10T01:01:58.860Z,0.90
2019-01-10T01:04:27.760Z,0.90
2019-01-10T01:06:56.533Z,0.90
2019-01-10T01:09:25.331Z,0.80
2019-01-10T01:14:22.327Z,0.90
2019-01-10T01:16:51.199Z,1.00
2019-01-10T01:19:20.068Z,0.90
2019-01-10T01:21:48.948Z,1.00
2019-01-10T01:24:17.666Z,1.00
2019-01-10T01:26:46.521Z,1.00
2019-01-10T01:29:15.233Z,1.00
2019-01-10T01:31:44.087Z,0.80
2019-01-10T01:36:41.304Z,0.80
2019-01-10T01:39:10.018Z,0.80
2019-01-10T01:41:38.884Z,0.80
2019-01-10T01:44:07.553Z,0.80
2019-01-10T01:46:36.383Z,0.80
2019-01-10T01:49:05.201Z,0.70
2019-01-10T01:51:34.175Z,0.80
2019-01-10T01:54:03.011Z,0.60
2019-01-10T01:59:00.393Z,0.80
2019-01-10T02:01:29.245Z,0.90
2019-01-10T02:03:58.210Z,0.90
2019-01-10T02:06:27.161Z,0.90
2019-01-10T02:08:57.818Z,1.00
2019-01-10T02:11:26.681Z,0.90
2019-01-10T02:13:55.493Z,0.90
2019-01-10T02:16:24.517Z,0.80
2019-01-10T02:21:22.064Z,0.40
2019-01-10T02:23:50.994Z,0.60
2019-01-10T02:26:19.991Z,0.60
2019-01-10T02:28:48.865Z,0.80
2019-01-10T02:31:17.974Z,0.70
2019-01-10T02:33:46.995Z,0.70
2019-01-10T02:36:16.250Z,0.40
2019-01-10T02:41:13.528Z,0.30
2019-01-10T02:43:42.314Z,0.60
2019-01-10T02:46:11.148Z,0.80
2019-01-10T02:48:39.936Z,0.70
2019-01-10T02:51:08.776Z,0.80
2019-01-10T02:53:37.762Z,0.70
2019-01-10T02:56:07.080Z,0.70
2019-01-10T02:58:35.899Z,0.60
2019-01-10T03:03:33.341Z,0.60
2019-01-10T03:06:02.293Z,0.80
2019-01-10T03:08:31.168Z,0.90
2019-01-10T03:11:00.087Z,0.80
2019-01-10T03:13:36.534Z,0.80
2019-01-10T03:15:59.567Z,0.90
2019-01-10T03:18:28.434Z,0.90
2019-01-10T03:20:57.169Z,0.70
2019-01-10T03:25:54.250Z,0.60
2019-01-10T03:28:23.057Z,0.70
2019-01-10T03:30:51.799Z,0.80
2019-01-10T03:33:20.564Z,0.70
2019-01-10T03:35:49.300Z,0.60
2019-01-10T03:38:18.086Z,0.70
2019-01-10T03:40:46.892Z,0.50
2019-01-10T03:45:44.219Z,0.60
2019-01-10T03:48:13.005Z,0.50
2019-01-10T03:50:41.889Z,0.60
2019-01-10T03:53:10.682Z,0.70
2019-01-10T03:55:39.409Z,0.70
2019-01-10T03:58:08.501Z,0.60
2019-01-10T04:00:37.573Z,0.50
2019-01-10T04:03:06.366Z,0.60
2019-01-10T04:08:03.746Z,2.20
2019-01-10T04:10:32.633Z,0.70
2019-01-10T04:13:01.607Z,0.60
2019-01-10T04:15:30.445Z,0.70
2019-01-10T04:17:59.160Z,0.70
2019-01-10T04:20:27.965Z,0.60
2019-01-10T04:22:56.959Z,0.50
2019-01-10T04:25:26.182Z,0.50
2019-01-10T04:30:23.558Z,0.60
2019-01-10T04:32:52.951Z,0.60
2019-01-10T04:35:21.837Z,0.50
2019-01-10T04:37:50.739Z,0.60
2019-01-10T04:40:22.557Z,0.60
2019-01-10T04:42:51.476Z,0.60
2019-01-10T04:45:20.260Z,0.70
2019-01-10T04:47:49.063Z,0.80
2019-01-10T04:52:46.299Z,0.90
2019-01-10T04:55:15.304Z,1.00
2019-01-10T04:57:44.199Z,0.90
2019-01-10T05:00:21.721Z,0.80
2019-01-10T05:02:50.684Z,0.90
2019-01-10T05:05:19.503Z,0.90
2019-01-10T05:07:48.557Z,0.90
2019-01-10T05:10:17.303Z,1.20
2019-01-10T05:15:14.740Z,1.60
2019-01-10T05:17:43.479Z,1.80
2019-01-10T05:20:14.717Z,1.60
2019-01-10T05:22:43.567Z,1.40
2019-01-10T05:25:12.269Z,1.40
2019-01-10T05:27:41.139Z,1.30
2019-01-10T05:30:16.261Z,1.30
2019-01-10T05:32:45.110Z,1.00
2019-01-10T05:37:42.448Z,0.80
2019-01-10T05:40:11.563Z,0.80
2019-01-10T05:42:40.492Z,0.80
2019-01-10T05:45:10.698Z,0.90
2019-01-10T05:47:39.751Z,1.00
2019-01-10T05:50:10.401Z,1.10
2019-01-10T05:52:39.234Z,1.10
2019-01-10T05:55:10.130Z,1.00
2019-01-10T06:00:10.615Z,0.90
2019-01-10T06:02:39.801Z,0.90
2019-01-10T06:05:10.594Z,1.00
2019-01-10T06:07:39.426Z,1.10
2019-01-10T06:10:12.304Z,1.20
2019-01-10T06:12:41.158Z,1.10
2019-01-10T06:15:11.148Z,1.00
2019-01-10T06:17:40.264Z,1.00
2019-01-10T06:20:10.675Z,0.80
2019-01-10T06:25:08.210Z,0.80
2019-01-10T06:27:37.116Z,0.80
2019-01-10T06:30:07.179Z,0.90
2019-01-10T06:32:35.931Z,0.80
2019-01-10T06:35:04.808Z,0.90
2019-01-10T06:37:33.566Z,0.80
2019-01-10T06:40:02.531Z,0.80
2019-01-10T06:42:31.375Z,0.40
2019-01-10T06:47:28.618Z,0.80
2019-01-10T06:49:57.821Z,0.90
2019-01-10T06:52:26.619Z,0.80
2019-01-10T06:54:56.651Z,0.80
2019-01-10T06:57:25.793Z,1.00
2019-01-10T06:59:56.600Z,1.00
2019-01-10T07:02:31.299Z,1.10
2019-01-10T07:05:00.291Z,0.90
2019-01-10T07:09:57.590Z,1.20
2019-01-10T07:12:26.400Z,1.10
2019-01-10T07:14:55.234Z,1.10
2019-01-10T07:17:24.192Z,1.10
2019-01-10T07:19:52.947Z,1.20
2019-01-10T07:22:21.754Z,1.10
2019-01-10T07:24:52.133Z,1.00
2019-01-10T07:27:21.382Z,1.00
2019-01-10T07:29:59.679Z,1.10
2019-01-10T07:32:28.802Z,1.10
2019-01-10T07:35:11.911Z,1.10
2019-01-10T07:37:40.867Z,1.10
2019-01-10T07:40:12.955Z,1.10
2019-01-10T07:42:41.928Z,1.10
2019-01-10T07:45:14.076Z,1.20
2019-01-10T07:47:49.781Z,1.00
2019-01-10T07:50:28.080Z,1.00
2019-01-10T07:57:53.915Z,1.20
2019-01-10T08:00:22.867Z,1.20
2019-01-10T08:02:51.661Z,1.30
2019-01-10T08:05:20.431Z,1.20
2019-01-10T08:07:49.276Z,1.20
2019-01-10T08:10:17.974Z,1.20
2019-01-10T08:12:46.893Z,1.20
2019-01-10T08:17:45.086Z,1.00
2019-01-10T08:20:13.939Z,1.20
2019-01-10T08:22:43.013Z,1.30
2019-01-10T08:25:12.205Z,1.30
2019-01-10T08:27:41.168Z,1.20
2019-01-10T08:30:20.827Z,1.10
2019-01-10T08:32:49.661Z,1.20
2019-01-10T08:35:20.515Z,1.20
2019-01-10T08:37:49.425Z,1.10
2019-01-10T08:42:46.613Z,1.10
2019-01-10T08:45:21.330Z,1.10
2019-01-10T08:47:45.875Z,1.60
2019-01-10T08:50:17.237Z,1.30
2019-01-10T08:52:46.343Z,1.20
2019-01-10T08:55:15.067Z,1.20
2019-01-10T08:57:43.843Z,1.20
2019-01-10T09:00:15.139Z,0.90
2019-01-10T09:02:43.952Z,1.20
2019-01-10T09:05:12.794Z,1.20
2019-01-10T09:07:41.538Z,1.10
2019-01-10T09:10:14.116Z,1.00
2019-01-10T09:12:43.064Z,1.10
2019-01-10T09:15:11.858Z,1.20
2019-01-10T09:17:40.609Z,1.10
2019-01-10T09:20:10.057Z,1.00
2019-01-10T09:25:07.221Z,1.10
2019-01-10T09:27:35.936Z,1.20
2019-01-10T09:30:05.997Z,1.40
2019-01-10T09:32:34.834Z,1.40
2019-01-10T09:35:03.666Z,1.50
2019-01-10T09:37:32.836Z,1.30
2019-01-10T09:40:01.737Z,1.30
2019-01-10T09:42:30.683Z,1.30
2019-01-10T09:47:27.948Z,1.40
2019-01-10T09:49:56.710Z,1.40
2019-01-10T09:52:25.452Z,1.50
2019-01-10T09:54:54.300Z,1.60
2019-01-10T09:57:23.053Z,1.60
2019-01-10T09:59:51.885Z,1.60
2019-01-10T10:02:20.783Z,1.70
2019-01-10T10:04:49.613Z,1.70
2019-01-10T10:09:47.122Z,1.60
2019-01-10T10:12:16.010Z,1.60
2019-01-10T10:14:44.819Z,1.70
2019-01-10T10:17:14.785Z,1.60
2019-01-10T10:19:43.580Z,1.50
2019-01-10T10:22:12.232Z,1.30
2019-01-10T10:24:41.269Z,1.40
2019-01-10T10:27:10.055Z,1.60
2019-01-10T10:32:07.856Z,1.60
2019-01-10T10:34:36.619Z,1.70
2019-01-10T10:37:05.376Z,1.60
2019-01-10T10:39:34.326Z,1.70
2019-01-10T10:42:03.133Z,1.60
2019-01-10T10:44:31.870Z,1.70
2019-01-10T10:47:02.339Z,1.70
2019-01-10T10:49:31.580Z,1.80
2019-01-10T10:54:29.299Z,1.50
2019-01-10T10:56:58.346Z,1.60
2019-01-10T10:59:27.320Z,1.80
2019-01-10T11:01:56.281Z,1.80
2019-01-10T11:04:25.362Z,1.70
2019-01-10T11:06:54.238Z,1.80
2019-01-10T11:09:23.197Z,1.90
2019-01-10T11:11:52.223Z,1.80
2019-01-10T11:16:49.368Z,1.80
2019-01-10T11:19:18.161Z,1.80
2019-01-10T11:21:47.003Z,1.60
2019-01-10T11:24:15.733Z,1.50
2019-01-10T11:26:44.627Z,1.60
2019-01-10T11:29:13.563Z,1.80
2019-01-10T11:31:42.293Z,1.80
2019-01-10T11:36:39.916Z,1.90
2019-01-10T11:39:09.299Z,2.00
2019-01-10T11:41:38.123Z,2.00
2019-01-10T11:44:06.886Z,2.10
2019-01-10T11:46:35.671Z,2.20
2019-01-10T11:49:04.691Z,2.30
2019-01-10T11:51:33.531Z,2.40
2019-01-10T11:54:02.380Z,2.40
2019-01-10T11:58:59.821Z,2.50
2019-01-10T12:01:28.715Z,2.50
2019-01-10T12:03:57.593Z,2.50
2019-01-10T12:06:26.329Z,2.50
2019-01-10T12:08:55.119Z,2.60
2019-01-10T12:11:24.208Z,2.90
2019-01-10T12:13:52.971Z,3.20
2019-01-10T12:16:28.529Z,3.40
2019-01-10T12:21:22.239Z,3.30
2019-01-10T12:23:50.897Z,3.10
2019-01-10T12:26:19.568Z,3.00
2019-01-10T12:28:48.336Z,3.00
2019-01-10T12:31:17.242Z,3.00
2019-01-10T12:33:45.998Z,2.90
2019-01-10T12:36:14.758Z,2.90
2019-01-10T12:38:43.503Z,3.00
2019-01-10T12:43:40.717Z,2.80
2019-01-10T12:46:09.438Z,2.90
2019-01-10T12:48:38.389Z,2.80
2019-01-10T12:51:07.214Z,2.80
2019-01-10T12:53:36.017Z,2.90
2019-01-10T12:56:05.852Z,2.90
2019-01-10T12:58:34.689Z,2.90
2019-01-10T13:01:03.850Z,2.80
2019-01-10T13:06:01.513Z,2.90
2019-01-10T13:08:30.533Z,2.80
2019-01-10T13:10:59.657Z,2.90
2019-01-10T13:13:28.976Z,2.80
2019-01-10T13:15:57.963Z,2.90
2019-01-10T13:18:27.008Z,2.90
2019-01-10T13:20:55.939Z,2.70
2019-01-10T13:28:23.627Z,2.80
2019-01-10T13:30:52.443Z,2.70
2019-01-10T13:33:21.296Z,2.70
2019-01-10T13:35:50.197Z,2.70
2019-01-10T13:38:19.154Z,2.80
2019-01-10T13:40:48.201Z,2.80
2019-01-10T13:43:17.088Z,2.90
2019-01-10T13:48:15.334Z,2.90
2019-01-10T13:50:44.094Z,3.00
2019-01-10T13:53:13.213Z,3.00
2019-01-10T13:55:42.238Z,2.90
2019-01-10T13:58:11.309Z,2.90
2019-01-10T14:00:41.255Z,2.90
2019-01-10T14:03:11.741Z,2.80
2019-01-10T14:05:40.867Z,2.30
2019-01-10T14:10:38.258Z,2.60
2019-01-10T14:13:07.085Z,2.70
2019-01-10T14:15:36.133Z,2.70
2019-01-10T14:18:06.040Z,2.80
2019-01-10T14:20:35.144Z,2.80
2019-01-10T14:23:04.365Z,2.80
2019-01-10T14:25:33.524Z,2.70
2019-01-10T14:28:02.363Z,2.70
2019-01-10T14:33:04.456Z,2.70
2019-01-10T14:35:33.299Z,2.70
2019-01-10T14:38:02.157Z,2.60
2019-01-10T14:40:30.903Z,2.70
2019-01-10T14:42:59.814Z,2.60
2019-01-10T14:45:28.591Z,2.60
2019-01-10T14:48:01.764Z,2.60
2019-01-10T14:50:27.785Z,2.70
2019-01-10T14:55:25.623Z,2.50
2019-01-10T14:57:54.588Z,2.50
2019-01-10T15:00:23.995Z,2.50
2019-01-10T15:02:52.954Z,2.50
2019-01-10T15:05:21.785Z,2.40
2019-01-10T15:07:50.587Z,2.40
2019-01-10T15:10:19.554Z,2.40
2019-01-10T15:12:48.531Z,2.10
2019-01-10T15:17:46.769Z,2.30
2019-01-10T15:20:18.151Z,2.40
2019-01-10T15:22:47.131Z,2.50
2019-01-10T15:25:16.097Z,2.50
2019-01-10T15:27:44.888Z,2.50
2019-01-10T15:30:16.647Z,2.50
2019-01-10T15:32:45.522Z,2.50
2019-01-10T15:35:14.651Z,2.20
2019-01-10T15:40:15.533Z,2.40
2019-01-10T15:42:44.461Z,2.50
2019-01-10T15:45:13.202Z,2.50
2019-01-10T15:47:42.317Z,2.40
2019-01-10T15:50:13.151Z,2.30
2019-01-10T15:52:42.360Z,2.30
2019-01-10T15:55:12.601Z,2.20
2019-01-10T15:57:41.802Z,2.20
2019-01-10T16:02:41.028Z,2.20
2019-01-10T16:05:09.784Z,2.30
2019-01-10T16:07:38.787Z,2.20
2019-01-10T16:10:08.801Z,2.20
2019-01-10T16:12:37.750Z,2.20
2019-01-10T16:15:08.576Z,2.20
2019-01-10T16:17:37.461Z,2.30
2019-01-10T16:20:06.663Z,2.30
2019-01-10T16:25:04.633Z,2.50
2019-01-10T16:27:33.601Z,2.60
2019-01-10T16:30:02.357Z,2.60
2019-01-10T16:32:31.238Z,2.40
2019-01-10T16:35:00.293Z,2.40
2019-01-10T16:37:29.243Z,2.20
2019-01-10T16:39:59.365Z,2.10
2019-01-10T16:42:28.429Z,2.10
2019-01-10T16:47:31.498Z,1.90
2019-01-10T16:49:56.496Z,2.20
2019-01-10T16:52:25.339Z,2.20
2019-01-10T16:54:54.183Z,2.20
2019-01-10T16:57:22.909Z,2.20
2019-01-10T16:59:51.898Z,2.20
2019-01-10T17:02:21.929Z,2.20
2019-01-10T17:04:51.078Z,2.10
2019-01-10T17:09:48.583Z,2.10
2019-01-10T17:12:17.548Z,2.10
2019-01-10T17:14:46.604Z,2.10
2019-01-10T17:17:16.189Z,2.10
2019-01-10T17:19:45.151Z,2.10
2019-01-10T17:22:14.479Z,2.10
2019-01-10T17:24:43.358Z,2.20
2019-01-10T17:27:12.176Z,2.30
2019-01-10T17:32:09.990Z,2.10
2019-01-10T17:34:39.358Z,2.10
2019-01-10T17:37:08.170Z,2.10
2019-01-10T17:39:37.126Z,2.20
2019-01-10T17:42:06.000Z,2.10
2019-01-10T17:44:34.916Z,2.10
2019-01-10T17:47:03.774Z,2.10
2019-01-10T17:52:01.513Z,2.10
2019-01-10T17:54:30.615Z,2.20
2019-01-10T17:56:59.600Z,2.20
2019-01-10T17:59:28.833Z,2.20
2019-01-10T18:01:57.999Z,2.20
2019-01-10T18:04:26.923Z,2.20
2019-01-10T18:06:55.586Z,2.20
2019-01-10T18:09:24.368Z,2.20
2019-01-10T18:14:21.800Z,2.20
2019-01-10T18:16:50.597Z,2.20
2019-01-10T18:19:19.675Z,2.10
2019-01-10T18:21:48.553Z,2.10
2019-01-10T18:24:17.394Z,2.20
2019-01-10T18:26:46.265Z,2.20
2019-01-10T18:29:15.092Z,2.20
2019-01-10T18:31:44.049Z,2.10
2019-01-10T18:36:44.348Z,2.10
2019-01-10T18:39:13.139Z,2.10
2019-01-10T18:41:42.427Z,2.00
2019-01-10T18:44:11.452Z,2.10
2019-01-10T18:46:40.302Z,2.10
2019-01-10T18:49:09.400Z,2.10
2019-01-10T18:51:38.267Z,2.00
2019-01-10T18:54:07.662Z,2.10
2019-01-10T18:59:05.223Z,2.10
2019-01-10T19:01:34.321Z,2.20
2019-01-10T19:04:03.543Z,2.20
2019-01-10T19:06:32.394Z,2.20
2019-01-10T19:09:01.124Z,2.20
2019-01-10T19:11:30.287Z,2.20
2019-01-10T19:13:59.057Z,2.20
2019-01-10T19:16:28.144Z,2.10
2019-01-10T19:21:25.766Z,2.40
2019-01-10T19:23:54.486Z,2.70
2019-01-10T19:26:23.537Z,2.80
2019-01-10T19:28:52.496Z,2.90
2019-01-10T19:31:21.658Z,3.10
2019-01-10T19:33:50.637Z,3.10
2019-01-10T19:36:19.988Z,2.80
2019-01-10T19:41:17.450Z,2.60
2019-01-10T19:43:46.213Z,2.40
2019-01-10T19:46:15.169Z,2.30
2019-01-10T19:48:43.878Z,2.20
2019-01-10T19:51:12.677Z,2.20
2019-01-10T19:53:41.527Z,2.10
2019-01-10T19:56:10.526Z,2.00
2019-01-10T19:58:39.545Z,1.80
2019-01-10T20:03:36.779Z,1.80
2019-01-10T20:06:05.690Z,1.80
2019-01-10T20:08:35.138Z,1.70
2019-01-10T20:11:04.054Z,1.70
2019-01-10T20:13:33.389Z,1.60
2019-01-10T20:16:02.476Z,1.60
2019-01-10T20:18:31.497Z,1.70
2019-01-10T20:21:00.268Z,1.60
2019-01-10T20:25:58.690Z,1.50
2019-01-10T20:28:27.507Z,1.50
2019-01-10T20:30:57.237Z,1.50
2019-01-10T20:33:26.019Z,1.50
2019-01-10T20:35:55.213Z,1.50
2019-01-10T20:38:24.310Z,1.50
2019-01-10T20:40:53.375Z,1.50
2019-01-10T20:43:22.314Z,1.50
2019-01-10T20:48:22.583Z,1.40
2019-01-10T20:50:50.272Z,1.40
2019-01-10T20:53:19.327Z,1.40
2019-01-10T20:55:48.214Z,1.40
2019-01-10T20:58:17.213Z,1.40
2019-01-10T21:00:46.471Z,1.30
2019-01-10T21:03:15.481Z,1.40
2019-01-10T21:05:44.171Z,1.00
2019-01-10T21:10:41.350Z,1.30
2019-01-10T21:13:10.110Z,1.30
2019-01-10T21:15:39.096Z,1.30
2019-01-10T21:18:07.963Z,1.20
2019-01-10T21:20:36.755Z,1.30
2019-01-10T21:23:05.781Z,1.30
2019-01-10T21:25:34.956Z,1.30
2019-01-10T21:28:03.787Z,-0.40
2019-01-10T21:33:01.052Z,1.10
2019-01-10T21:35:30.004Z,1.20
2019-01-10T21:37:59.210Z,1.10
2019-01-10T21:40:29.549Z,1.10
2019-01-10T21:42:58.513Z,1.00
2019-01-10T21:45:27.458Z,1.10
2019-01-10T21:47:56.285Z,0.40
2019-01-10T21:50:26.140Z,1.10
2019-01-10T21:55:23.573Z,1.10
2019-01-10T21:57:52.783Z,1.10
2019-01-10T22:00:24.403Z,1.10
2019-01-10T22:02:53.357Z,1.00
2019-01-10T22:05:22.142Z,1.00
2019-01-10T22:07:50.905Z,1.10
2019-01-10T22:10:19.646Z,1.10
2019-01-10T22:17:45.493Z,1.10
2019-01-10T22:20:15.146Z,1.00
2019-01-10T22:22:44.275Z,0.90
2019-01-10T22:25:13.184Z,1.00
2019-01-10T22:27:42.144Z,1.00
2019-01-10T22:30:16.490Z,1.00
2019-01-10T22:32:45.649Z,1.10
2019-01-10T22:35:15.931Z,1.30
2019-01-10T22:40:15.511Z,1.00
2019-01-10T22:42:44.407Z,1.00
2019-01-10T22:45:13.970Z,0.90
2019-01-10T22:47:43.216Z,0.90
2019-01-10T22:50:13.375Z,1.00
2019-01-10T22:52:42.316Z,0.90
2019-01-10T22:55:12.105Z,0.90
2019-01-10T22:57:40.985Z,0.90
2019-01-10T23:06:07.231Z,0.70
2019-01-10T23:08:42.440Z,0.80
2019-01-10T23:11:25.883Z,0.90
2019-01-10T23:13:59.283Z,0.90
2019-01-10T23:16:28.400Z,0.80
2019-01-10T23:18:57.323Z,0.80
2019-01-10T23:21:26.386Z,0.80
2019-01-10T23:24:03.464Z,0.80
2019-01-10T23:26:32.217Z,0.80
2019-01-10T23:31:29.724Z,0.70
2019-01-10T23:34:05.453Z,0.70
2019-01-10T23:36:34.286Z,0.70
2019-01-10T23:39:14.065Z,0.70
2019-01-10T23:41:42.930Z,0.70
2019-01-10T23:44:11.778Z,0.70
2019-01-10T23:46:40.549Z,0.70
2019-01-10T23:49:09.345Z,0.70
2019-01-10T23:51:38.051Z,0.80
2019-01-10T23:56:35.364Z,0.70
2019-01-10T23:59:04.284Z,0.70
